This is the latest recevied weather packets stored in our database for station/object KE4LOJ. If no packets are shown the sender has not sent any weather packets the latest 10 day(s).
| Time | Temp. | Humidity | Pressure | Rain* | Wind** | Luminosity | Snow |
|---|---|---|---|---|---|---|---|
| 1777667317 | 32.22° C | 44% | 1009.6 hPa | 0 mm | - | 525 W/m² | - |
| 1777667015 | 32.22° C | 46% | 1009.8 hPa | 0 mm | - | 198 W/m² | - |
| 1777666711 | 32.22° C | 45% | 1009.6 hPa | 0 mm | - | 139 W/m² | - |
| 1777666408 | 32.78° C | 44% | 1009.9 hPa | 0 mm | - | 177 W/m² | - |
| 1777666104 | 31.67° C | 45% | 1009.7 hPa | 0 mm | - | 710 W/m² | - |
| 1777665802 | 32.78° C | 44% | 1009.8 hPa | 0 mm | - | 193 W/m² | - |
| 1777665500 | 33.89° C | 42% | 1009.6 hPa | 0 mm | - | 151 W/m² | - |
| 1777665195 | 33.89° C | 42% | 1009.9 hPa | 0 mm | - | 705 W/m² | - |
| 1777664891 | 33.33° C | 44% | 1010.1 hPa | 0 mm | - | 702 W/m² | - |
| 1777664588 | 33.89° C | 41% | 1010.2 hPa | 0 mm | - | 733 W/m² | - |
| 1777664284 | 33.33° C | 43% | 1010.2 hPa | 0 mm | - | 764 W/m² | - |
| 1777663983 | 33.33° C | 43% | 1010.5 hPa | 0 mm | - | 677 W/m² | - |
| 1777663680 | 32.78° C | 44% | 1010.6 hPa | 0 mm | - | 575 W/m² | - |
| 1777663376 | 32.78° C | 43% | 1010.6 hPa | 0 mm | - | 248 W/m² | - |
| 1777663073 | 33.33° C | 43% | 1010.8 hPa | 0 mm | - | 765 W/m² | - |
| 1777662770 | 32.78° C | 42% | 1010.9 hPa | 0 mm | - | 730 W/m² | - |
| 1777662467 | 32.78° C | 43% | 1011.1 hPa | 0 mm | - | 573 W/m² | - |
| 1777662163 | 32.22° C | 43% | 1011.1 hPa | 0 mm | - | 626 W/m² | - |
| 1777661859 | 32.22° C | 47% | 1011.1 hPa | 0 mm | - | 714 W/m² | - |
| 1777661555 | 31.67° C | 47% | 1011.2 hPa | 0 mm | - | 488 W/m² | - |
| 1777661251 | 32.22° C | 46% | 1011.2 hPa | 0 mm | - | 263 W/m² | - |
| 1777660946 | 32.78° C | 45% | 1011.3 hPa | 0 mm | - | 293 W/m² | - |
| 1777660643 | 32.22° C | 45% | 1011.4 hPa | 0 mm | - | 623 W/m² | - |
| 1777660340 | 31.67° C | 45% | 1011.5 hPa | 0 mm | - | 453 W/m² | - |
| 1777660036 | 32.22° C | 44% | 1011.5 hPa | 0 mm | - | 855 W/m² | - |
* Rain latest hour (hover to see other rain measurements)
** Current wind speed in m/s (hover to see current wind gust speed)